sensor_id;sensor_type;location;lat;lon;timestamp;pressure;altitude;pressure_sealevel;temperature;humidity
44103;BME280;29769;42.178;24.742;2023-02-18T00:02:04;100388.84;;;6.80;56.25
44103;BME280;29769;42.178;24.742;2023-02-18T00:04:50;100387.19;;;6.90;55.90
44103;BME280;29769;42.178;24.742;2023-02-18T00:07:38;100377.69;;;6.98;55.58
44103;BME280;29769;42.178;24.742;2023-02-18T00:10:23;100374.28;;;7.06;55.22
44103;BME280;29769;42.178;24.742;2023-02-18T00:13:09;100367.34;;;7.11;54.50
44103;BME280;29769;42.178;24.742;2023-02-18T00:15:53;100352.44;;;7.04;54.61
44103;BME280;29769;42.178;24.742;2023-02-18T00:18:38;100368.16;;;7.06;55.06
44103;BME280;29769;42.178;24.742;2023-02-18T00:21:23;100367.19;;;6.95;55.46
44103;BME280;29769;42.178;24.742;2023-02-18T00:24:09;100370.53;;;6.82;55.96
44103;BME280;29769;42.178;24.742;2023-02-18T00:26:56;100365.09;;;6.62;56.85
44103;BME280;29769;42.178;24.742;2023-02-18T00:29:41;100369.47;;;6.63;56.87
44103;BME280;29769;42.178;24.742;2023-02-18T00:32:26;100358.94;;;6.57;57.42
44103;BME280;29769;42.178;24.742;2023-02-18T00:35:11;100360.53;;;6.46;57.88
44103;BME280;29769;42.178;24.742;2023-02-18T00:37:56;100358.59;;;6.30;58.90
44103;BME280;29769;42.178;24.742;2023-02-18T00:40:41;100356.63;;;6.10;59.56
44103;BME280;29769;42.178;24.742;2023-02-18T00:43:26;100337.75;;;5.72;60.62
44103;BME280;29769;42.178;24.742;2023-02-18T00:46:11;100329.81;;;5.63;61.76
44103;BME280;29769;42.178;24.742;2023-02-18T00:48:56;100335.22;;;5.75;61.53
44103;BME280;29769;42.178;24.742;2023-02-18T00:51:41;100312.53;;;5.71;61.42
44103;BME280;29769;42.178;24.742;2023-02-18T00:54:26;100323.22;;;5.87;61.08
44103;BME280;29769;42.178;24.742;2023-02-18T00:57:11;100315.28;;;5.80;61.46
44103;BME280;29769;42.178;24.742;2023-02-18T00:59:55;100311.81;;;5.83;61.87
44103;BME280;29769;42.178;24.742;2023-02-18T01:02:40;100307.47;;;5.83;61.51
44103;BME280;29769;42.178;24.742;2023-02-18T01:05:25;100293.66;;;5.89;60.97
44103;BME280;29769;42.178;24.742;2023-02-18T01:08:11;100286.69;;;5.88;60.98
44103;BME280;29769;42.178;24.742;2023-02-18T01:10:57;100279.59;;;5.82;60.74
44103;BME280;29769;42.178;24.742;2023-02-18T01:13:43;100287.53;;;5.87;60.23
44103;BME280;29769;42.178;24.742;2023-02-18T01:16:29;100278.03;;;5.92;59.68
44103;BME280;29769;42.178;24.742;2023-02-18T01:19:13;100282.50;;;5.99;59.11
44103;BME280;29769;42.178;24.742;2023-02-18T01:21:58;100280.78;;;6.04;58.83
44103;BME280;29769;42.178;24.742;2023-02-18T01:24:43;100278.09;;;5.97;58.99
44103;BME280;29769;42.178;24.742;2023-02-18T01:27:28;100277.22;;;5.95;58.88
44103;BME280;29769;42.178;24.742;2023-02-18T01:30:15;100282.44;;;5.96;58.95
44103;BME280;29769;42.178;24.742;2023-02-18T01:33:00;100265.75;;;5.87;58.86
44103;BME280;29769;42.178;24.742;2023-02-18T01:35:45;100270.97;;;5.85;59.56
44103;BME280;29769;42.178;24.742;2023-02-18T01:38:29;100273.50;;;5.82;59.60
44103;BME280;29769;42.178;24.742;2023-02-18T01:41:14;100265.56;;;5.73;59.68
44103;BME280;29769;42.178;24.742;2023-02-18T01:44:16;100249.94;;;5.74;59.29
44103;BME280;29769;42.178;24.742;2023-02-18T01:47:03;100260.53;;;5.87;58.80
44103;BME280;29769;42.178;24.742;2023-02-18T01:49:51;100264.81;;;5.83;58.61
44103;BME280;29769;42.178;24.742;2023-02-18T01:52:36;100270.91;;;5.82;58.66
44103;BME280;29769;42.178;24.742;2023-02-18T01:55:21;100266.50;;;5.78;59.08
44103;BME280;29769;42.178;24.742;2023-02-18T01:58:06;100261.34;;;5.81;58.54
44103;BME280;29769;42.178;24.742;2023-02-18T02:00:51;100255.34;;;5.88;58.32
44103;BME280;29769;42.178;24.742;2023-02-18T02:03:36;100238.69;;;5.80;57.96
44103;BME280;29769;42.178;24.742;2023-02-18T02:06:23;100253.66;;;5.90;57.41
44103;BME280;29769;42.178;24.742;2023-02-18T02:09:13;100257.81;;;5.79;58.43
44103;BME280;29769;42.178;24.742;2023-02-18T02:39:09;100274.03;;;4.98;62.67
44103;BME280;29769;42.178;24.742;2023-02-18T02:47:48;100274.97;;;5.03;63.45
44103;BME280;29769;42.178;24.742;2023-02-18T02:50:51;100269.09;;;5.16;61.99
44103;BME280;29769;42.178;24.742;2023-02-18T02:53:40;100278.81;;;5.28;61.98
44103;BME280;29769;42.178;24.742;2023-02-18T02:56:26;100271.81;;;5.24;61.83
44103;BME280;29769;42.178;24.742;2023-02-18T02:59:18;100263.78;;;5.10;62.21
44103;BME280;29769;42.178;24.742;2023-02-18T03:10:56;100271.81;;;5.84;57.95
44103;BME280;29769;42.178;24.742;2023-02-18T03:14:18;100277.81;;;5.78;58.20
44103;BME280;29769;42.178;24.742;2023-02-18T03:17:15;100264.78;;;5.80;57.78
44103;BME280;29769;42.178;24.742;2023-02-18T03:20:12;100251.69;;;5.77;57.68
44103;BME280;29769;42.178;24.742;2023-02-18T03:23:04;100253.31;;;5.67;58.06
44103;BME280;29769;42.178;24.742;2023-02-18T03:25:51;100250.53;;;5.54;58.49
44103;BME280;29769;42.178;24.742;2023-02-18T03:28:37;100260.72;;;5.37;59.63
44103;BME280;29769;42.178;24.742;2023-02-18T03:31:25;100258.81;;;5.25;60.17
44103;BME280;29769;42.178;24.742;2023-02-18T03:34:15;100255.97;;;5.10;61.11
44103;BME280;29769;42.178;24.742;2023-02-18T03:37:02;100249.66;;;4.96;61.53
44103;BME280;29769;42.178;24.742;2023-02-18T03:39:52;100244.13;;;4.78;62.58
44103;BME280;29769;42.178;24.742;2023-02-18T03:42:39;100252.63;;;4.66;63.81
44103;BME280;29769;42.178;24.742;2023-02-18T03:45:25;100263.75;;;4.56;64.24
44103;BME280;29769;42.178;24.742;2023-02-18T03:48:10;100259.28;;;4.51;65.11
44103;BME280;29769;42.178;24.742;2023-02-18T03:50:55;100274.84;;;4.44;65.55
44103;BME280;29769;42.178;24.742;2023-02-18T03:53:40;100232.66;;;4.19;65.83
44103;BME280;29769;42.178;24.742;2023-02-18T03:56:25;100279.88;;;4.35;66.38
44103;BME280;29769;42.178;24.742;2023-02-18T03:59:11;100274.13;;;4.55;65.88
44103;BME280;29769;42.178;24.742;2023-02-18T04:01:56;100283.06;;;4.69;65.61
44103;BME280;29769;42.178;24.742;2023-02-18T04:04:41;100277.28;;;4.86;64.81
44103;BME280;29769;42.178;24.742;2023-02-18T04:07:26;100274.75;;;4.91;63.84
44103;BME280;29769;42.178;24.742;2023-02-18T04:10:11;100290.34;;;4.88;64.46
44103;BME280;29769;42.178;24.742;2023-02-18T04:12:56;100289.41;;;4.83;64.26
44103;BME280;29769;42.178;24.742;2023-02-18T04:15:40;100294.53;;;4.77;64.42
44103;BME280;29769;42.178;24.742;2023-02-18T04:18:26;100291.50;;;4.56;65.96
44103;BME280;29769;42.178;24.742;2023-02-18T04:21:11;100293.56;;;4.25;67.78
44103;BME280;29769;42.178;24.742;2023-02-18T04:23:56;100289.78;;;4.11;69.21
44103;BME280;29769;42.178;24.742;2023-02-18T04:26:41;100294.31;;;4.20;69.60
44103;BME280;29769;42.178;24.742;2023-02-18T04:29:26;100288.38;;;4.27;69.06
44103;BME280;29769;42.178;24.742;2023-02-18T04:32:11;100288.91;;;4.56;67.24
44103;BME280;29769;42.178;24.742;2023-02-18T04:34:56;100281.50;;;4.77;66.51
44103;BME280;29769;42.178;24.742;2023-02-18T04:37:41;100291.97;;;4.80;66.72
44103;BME280;29769;42.178;24.742;2023-02-18T04:40:26;100296.00;;;4.63;68.06
44103;BME280;29769;42.178;24.742;2023-02-18T04:43:14;100294.31;;;4.66;68.13
44103;BME280;29769;42.178;24.742;2023-02-18T04:45:59;100284.34;;;4.92;65.94
44103;BME280;29769;42.178;24.742;2023-02-18T04:48:44;100279.50;;;5.13;63.75
44103;BME280;29769;42.178;24.742;2023-02-18T04:51:29;100268.09;;;5.67;60.40
44103;BME280;29769;42.178;24.742;2023-02-18T04:54:14;100268.56;;;5.99;58.36
44103;BME280;29769;42.178;24.742;2023-02-18T04:56:58;100261.91;;;6.27;56.63
44103;BME280;29769;42.178;24.742;2023-02-18T04:59:43;100275.63;;;6.09;57.36
44103;BME280;29769;42.178;24.742;2023-02-18T05:02:28;100288.56;;;5.98;58.09
44103;BME280;29769;42.178;24.742;2023-02-18T05:05:14;100286.72;;;5.90;58.61
44103;BME280;29769;42.178;24.742;2023-02-18T05:07:59;100284.03;;;5.87;58.83
44103;BME280;29769;42.178;24.742;2023-02-18T05:10:44;100291.81;;;5.83;58.73
44103;BME280;29769;42.178;24.742;2023-02-18T05:13:28;100290.69;;;5.65;59.21
44103;BME280;29769;42.178;24.742;2023-02-18T05:16:13;100301.78;;;5.50;60.16
44103;BME280;29769;42.178;24.742;2023-02-18T05:18:58;100284.13;;;5.31;60.62
44103;BME280;29769;42.178;24.742;2023-02-18T05:21:43;100286.91;;;5.43;60.65
44103;BME280;29769;42.178;24.742;2023-02-18T05:24:28;100283.44;;;5.46;60.60
44103;BME280;29769;42.178;24.742;2023-02-18T05:27:13;100279.97;;;5.47;60.72
44103;BME280;29769;42.178;24.742;2023-02-18T05:29:57;100286.16;;;5.52;60.65
44103;BME280;29769;42.178;24.742;2023-02-18T05:32:42;100280.97;;;5.55;60.11
44103;BME280;29769;42.178;24.742;2023-02-18T05:35:27;100284.44;;;5.55;60.54
44103;BME280;29769;42.178;24.742;2023-02-18T05:38:12;100286.28;;;5.61;60.71
44103;BME280;29769;42.178;24.742;2023-02-18T05:40:57;100281.97;;;5.64;60.07
44103;BME280;29769;42.178;24.742;2023-02-18T05:43:41;100285.63;;;5.75;59.95
44103;BME280;29769;42.178;24.742;2023-02-18T05:46:45;100286.81;;;5.97;59.06
44103;BME280;29769;42.178;24.742;2023-02-18T05:49:30;100287.75;;;6.02;59.17
44103;BME280;29769;42.178;24.742;2023-02-18T05:52:16;100283.34;;;5.98;59.22
44103;BME280;29769;42.178;24.742;2023-02-18T05:55:01;100284.97;;;5.90;60.35
44103;BME280;29769;42.178;24.742;2023-02-18T05:57:45;100285.88;;;5.92;60.23
44103;BME280;29769;42.178;24.742;2023-02-18T06:00:30;100287.75;;;6.02;59.70
44103;BME280;29769;42.178;24.742;2023-02-18T06:03:15;100286.06;;;6.07;59.99
44103;BME280;29769;42.178;24.742;2023-02-18T06:06:00;100284.75;;;6.46;58.02
44103;BME280;29769;42.178;24.742;2023-02-18T06:08:44;100262.63;;;7.01;54.98
44103;BME280;29769;42.178;24.742;2023-02-18T06:11:29;100260.44;;;7.62;52.24
44103;BME280;29769;42.178;24.742;2023-02-18T06:14:15;100264.19;;;8.29;49.57
44103;BME280;29769;42.178;24.742;2023-02-18T06:17:00;100266.91;;;8.59;48.33
44103;BME280;29769;42.178;24.742;2023-02-18T06:19:45;100258.16;;;8.45;49.26
44103;BME280;29769;42.178;24.742;2023-02-18T06:22:30;100267.78;;;8.40;50.73
44103;BME280;29769;42.178;24.742;2023-02-18T06:25:14;100227.47;;;8.11;50.41
44103;BME280;29769;42.178;24.742;2023-02-18T06:27:59;100278.22;;;8.32;51.63
44103;BME280;29769;42.178;24.742;2023-02-18T06:30:45;100264.13;;;8.09;52.09
44103;BME280;29769;42.178;24.742;2023-02-18T06:33:29;100285.16;;;8.29;51.75
44103;BME280;29769;42.178;24.742;2023-02-18T06:36:14;100274.72;;;8.36;51.29
44103;BME280;29769;42.178;24.742;2023-02-18T06:39:01;100275.63;;;8.46;51.67
44103;BME280;29769;42.178;24.742;2023-02-18T06:41:46;100275.69;;;8.66;50.41
44103;BME280;29769;42.178;24.742;2023-02-18T06:44:31;100260.84;;;9.03;49.65
44103;BME280;29769;42.178;24.742;2023-02-18T06:47:16;100244.13;;;9.76;45.99
44103;BME280;29769;42.178;24.742;2023-02-18T06:50:01;100233.22;;;10.55;43.42
44103;BME280;29769;42.178;24.742;2023-02-18T06:52:46;100232.03;;;10.96;42.01
44103;BME280;29769;42.178;24.742;2023-02-18T06:55:31;100227.22;;;11.43;41.46
44103;BME280;29769;42.178;24.742;2023-02-18T06:58:16;100219.72;;;11.88;39.72
44103;BME280;29769;42.178;24.742;2023-02-18T07:01:01;100217.66;;;12.10;39.31
44103;BME280;29769;42.178;24.742;2023-02-18T07:03:46;100199.84;;;12.28;39.01
44103;BME280;29769;42.178;24.742;2023-02-18T07:06:31;100202.28;;;12.42;38.06
44103;BME280;29769;42.178;24.742;2023-02-18T07:09:16;100227.38;;;12.70;38.33
44103;BME280;29769;42.178;24.742;2023-02-18T07:12:01;100220.25;;;12.75;38.11
44103;BME280;29769;42.178;24.742;2023-02-18T07:14:46;100207.81;;;12.82;37.23
44103;BME280;29769;42.178;24.742;2023-02-18T07:17:31;100202.44;;;12.86;36.99
44103;BME280;29769;42.178;24.742;2023-02-18T07:20:16;100227.91;;;12.90;37.03
44103;BME280;29769;42.178;24.742;2023-02-18T07:23:01;100200.97;;;12.69;37.20
44103;BME280;29769;42.178;24.742;2023-02-18T07:25:47;100214.69;;;12.90;37.01
44103;BME280;29769;42.178;24.742;2023-02-18T07:28:32;100223.94;;;13.19;36.96
44103;BME280;29769;42.178;24.742;2023-02-18T07:31:16;100207.34;;;13.12;36.92
44103;BME280;29769;42.178;24.742;2023-02-18T07:34:01;100201.66;;;13.33;36.25
44103;BME280;29769;42.178;24.742;2023-02-18T07:36:46;100177.91;;;13.32;36.07
44103;BME280;29769;42.178;24.742;2023-02-18T07:39:31;100200.47;;;12.99;37.14
44103;BME280;29769;42.178;24.742;2023-02-18T07:42:16;100175.59;;;13.15;37.18
44103;BME280;29769;42.178;24.742;2023-02-18T07:45:02;100192.59;;;12.96;37.00
44103;BME280;29769;42.178;24.742;2023-02-18T07:47:47;100194.56;;;12.85;36.95
44103;BME280;29769;42.178;24.742;2023-02-18T07:50:32;100198.25;;;12.75;37.30
44103;BME280;29769;42.178;24.742;2023-02-18T07:53:19;100197.53;;;12.65;37.51
44103;BME280;29769;42.178;24.742;2023-02-18T07:56:04;100191.88;;;12.86;37.91
44103;BME280;29769;42.178;24.742;2023-02-18T07:58:49;100191.56;;;13.05;37.66
44103;BME280;29769;42.178;24.742;2023-02-18T08:01:34;100184.56;;;13.96;36.62
44103;BME280;29769;42.178;24.742;2023-02-18T08:04:19;100179.63;;;14.59;36.17
44103;BME280;29769;42.178;24.742;2023-02-18T08:07:04;100183.50;;;15.17;35.12
44103;BME280;29769;42.178;24.742;2023-02-18T08:09:49;100173.56;;;14.54;35.04
44103;BME280;29769;42.178;24.742;2023-02-18T08:12:34;100181.91;;;15.42;33.94
44103;BME280;29769;42.178;24.742;2023-02-18T08:15:19;100184.91;;;16.22;33.65
44103;BME280;29769;42.178;24.742;2023-02-18T08:18:05;100166.47;;;16.45;32.63
44103;BME280;29769;42.178;24.742;2023-02-18T08:20:50;100162.00;;;16.48;32.33
44103;BME280;29769;42.178;24.742;2023-02-18T08:23:35;100179.03;;;16.40;32.59
44103;BME280;29769;42.178;24.742;2023-02-18T08:26:20;100164.75;;;15.87;33.01
44103;BME280;29769;42.178;24.742;2023-02-18T08:29:05;100174.06;;;15.39;33.82
44103;BME280;29769;42.178;24.742;2023-02-18T08:31:50;100179.41;;;15.36;34.40
44103;BME280;29769;42.178;24.742;2023-02-18T08:34:36;100170.06;;;15.86;34.00
44103;BME280;29769;42.178;24.742;2023-02-18T08:37:20;100173.84;;;17.18;32.41
44103;BME280;29769;42.178;24.742;2023-02-18T08:40:06;100165.72;;;18.18;30.78
44103;BME280;29769;42.178;24.742;2023-02-18T08:42:52;100164.38;;;17.85;31.07
44103;BME280;29769;42.178;24.742;2023-02-18T08:45:37;100171.22;;;18.14;30.97
44103;BME280;29769;42.178;24.742;2023-02-18T08:48:21;100168.44;;;18.84;29.90
44103;BME280;29769;42.178;24.742;2023-02-18T08:51:17;100172.75;;;18.21;30.04
44103;BME280;29769;42.178;24.742;2023-02-18T08:54:03;100177.47;;;17.15;31.49
44103;BME280;29769;42.178;24.742;2023-02-18T08:56:48;100176.88;;;17.32;31.69
44103;BME280;29769;42.178;24.742;2023-02-18T08:59:33;100169.13;;;18.22;30.16
44103;BME280;29769;42.178;24.742;2023-02-18T09:02:18;100151.16;;;19.54;28.55
44103;BME280;29769;42.178;24.742;2023-02-18T09:05:03;100128.38;;;19.47;27.63
44103;BME280;29769;42.178;24.742;2023-02-18T09:07:48;100148.09;;;19.23;27.60
44103;BME280;29769;42.178;24.742;2023-02-18T09:10:33;100138.03;;;18.22;28.14
44103;BME280;29769;42.178;24.742;2023-02-18T09:13:17;100157.66;;;17.98;28.57
44103;BME280;29769;42.178;24.742;2023-02-18T09:16:10;100160.72;;;17.38;29.79
44103;BME280;29769;42.178;24.742;2023-02-18T09:18:56;100146.13;;;17.74;29.34
44103;BME280;29769;42.178;24.742;2023-02-18T09:21:42;100143.13;;;18.07;29.37
44103;BME280;29769;42.178;24.742;2023-02-18T09:24:27;100131.56;;;18.51;28.29
44103;BME280;29769;42.178;24.742;2023-02-18T09:27:12;100122.81;;;18.91;27.66
44103;BME280;29769;42.178;24.742;2023-02-18T09:29:57;100133.69;;;19.27;27.80
44103;BME280;29769;42.178;24.742;2023-02-18T09:32:42;100131.50;;;18.75;28.39
44103;BME280;29769;42.178;24.742;2023-02-18T09:35:26;100130.94;;;18.00;29.66
44103;BME280;29769;42.178;24.742;2023-02-18T09:38:14;100144.59;;;17.91;30.19
44103;BME280;29769;42.178;24.742;2023-02-18T09:41:03;100134.28;;;17.58;30.72
44103;BME280;29769;42.178;24.742;2023-02-18T09:43:52;100139.66;;;17.32;30.62
44103;BME280;29769;42.178;24.742;2023-02-18T09:46:42;100125.06;;;18.58;29.46
44103;BME280;29769;42.178;24.742;2023-02-18T09:49:36;100134.44;;;17.78;30.21
44103;BME280;29769;42.178;24.742;2023-02-18T09:52:26;100139.25;;;17.92;30.32
44103;BME280;29769;42.178;24.742;2023-02-18T09:55:26;100127.53;;;17.73;30.30
44103;BME280;29769;42.178;24.742;2023-02-18T09:58:14;100101.38;;;17.62;30.40
44103;BME280;29769;42.178;24.742;2023-02-18T10:01:31;100101.19;;;17.42;30.80
44103;BME280;29769;42.178;24.742;2023-02-18T10:04:27;100104.94;;;17.37;31.33
44103;BME280;29769;42.178;24.742;2023-02-18T10:07:24;100107.00;;;17.53;31.06
44103;BME280;29769;42.178;24.742;2023-02-18T10:10:20;100105.91;;;18.27;29.92
44103;BME280;29769;42.178;24.742;2023-02-18T10:13:12;100104.00;;;19.55;27.99
44103;BME280;29769;42.178;24.742;2023-02-18T10:15:58;100090.75;;;20.10;27.10
44103;BME280;29769;42.178;24.742;2023-02-18T10:18:46;100075.19;;;19.82;27.20
44103;BME280;29769;42.178;24.742;2023-02-18T10:21:33;100076.25;;;20.34;26.93
44103;BME280;29769;42.178;24.742;2023-02-18T10:27:11;100078.66;;;21.26;25.79
44103;BME280;29769;42.178;24.742;2023-02-18T10:30:30;100064.22;;;21.46;25.50
44103;BME280;29769;42.178;24.742;2023-02-18T10:36:35;100040.38;;;20.74;25.16
44103;BME280;29769;42.178;24.742;2023-02-18T10:39:47;100036.72;;;21.26;24.70
44103;BME280;29769;42.178;24.742;2023-02-18T10:43:02;100032.09;;;21.30;23.79
44103;BME280;29769;42.178;24.742;2023-02-18T10:45:48;100019.00;;;20.74;24.56
44103;BME280;29769;42.178;24.742;2023-02-18T10:51:44;100005.06;;;20.67;24.84
44103;BME280;29769;42.178;24.742;2023-02-18T10:55:08;100006.84;;;21.18;24.40
44103;BME280;29769;42.178;24.742;2023-02-18T10:57:54;99997.34;;;21.61;24.40
44103;BME280;29769;42.178;24.742;2023-02-18T11:00:40;100004.75;;;22.65;23.72
44103;BME280;29769;42.178;24.742;2023-02-18T11:03:37;100011.28;;;23.19;22.92
44103;BME280;29769;42.178;24.742;2023-02-18T11:12:18;99967.22;;;22.65;22.50
44103;BME280;29769;42.178;24.742;2023-02-18T11:17:57;99978.06;;;21.06;24.31
44103;BME280;29769;42.178;24.742;2023-02-18T11:21:00;99978.19;;;20.53;25.01
44103;BME280;29769;42.178;24.742;2023-02-18T11:23:50;99965.28;;;20.78;24.69
44103;BME280;29769;42.178;24.742;2023-02-18T11:26:37;99979.31;;;21.16;24.91
44103;BME280;29769;42.178;24.742;2023-02-18T11:29:24;99980.19;;;22.42;23.88
44103;BME280;29769;42.178;24.742;2023-02-18T11:32:12;99970.91;;;21.87;23.82
44103;BME280;29769;42.178;24.742;2023-02-18T11:34:57;99966.53;;;22.31;23.38
44103;BME280;29769;42.178;24.742;2023-02-18T11:37:42;99970.72;;;22.51;22.88
44103;BME280;29769;42.178;24.742;2023-02-18T11:40:31;99964.53;;;21.73;23.66
44103;BME280;29769;42.178;24.742;2023-02-18T11:43:18;99962.69;;;21.58;23.81
44103;BME280;29769;42.178;24.742;2023-02-18T11:46:20;99976.44;;;21.52;23.85
44103;BME280;29769;42.178;24.742;2023-02-18T11:49:19;99973.59;;;21.55;23.84
44103;BME280;29769;42.178;24.742;2023-02-18T11:52:18;99976.72;;;22.10;23.87
44103;BME280;29769;42.178;24.742;2023-02-18T11:58:02;99966.56;;;23.88;22.39
44103;BME280;29769;42.178;24.742;2023-02-18T12:00:49;99942.09;;;24.20;21.76
44103;BME280;29769;42.178;24.742;2023-02-18T12:06:33;99961.25;;;24.28;22.03
44103;BME280;29769;42.178;24.742;2023-02-18T12:09:28;99933.19;;;24.97;21.64
44103;BME280;29769;42.178;24.742;2023-02-18T12:12:16;99942.78;;;24.49;22.22
44103;BME280;29769;42.178;24.742;2023-02-18T12:15:03;99936.59;;;24.61;21.95
44103;BME280;29769;42.178;24.742;2023-02-18T12:18:02;99917.66;;;25.13;21.81
44103;BME280;29769;42.178;24.742;2023-02-18T12:20:59;99905.41;;;23.65;22.73
44103;BME280;29769;42.178;24.742;2023-02-18T12:23:54;99923.31;;;23.79;23.02
44103;BME280;29769;42.178;24.742;2023-02-18T12:45:06;99900.31;;;22.91;24.41
44103;BME280;29769;42.178;24.742;2023-02-18T13:00:20;99889.50;;;23.07;25.35
44103;BME280;29769;42.178;24.742;2023-02-18T13:15:42;99866.69;;;23.41;24.70
44103;BME280;29769;42.178;24.742;2023-02-18T13:18:31;99865.94;;;22.98;25.15
44103;BME280;29769;42.178;24.742;2023-02-18T13:21:17;99864.16;;;23.25;25.21
44103;BME280;29769;42.178;24.742;2023-02-18T13:24:16;99867.09;;;23.35;24.96
44103;BME280;29769;42.178;24.742;2023-02-18T13:27:12;99869.63;;;23.24;25.43
44103;BME280;29769;42.178;24.742;2023-02-18T13:33:13;99861.72;;;22.94;25.49
44103;BME280;29769;42.178;24.742;2023-02-18T13:36:16;99860.59;;;23.39;24.93
44103;BME280;29769;42.178;24.742;2023-02-18T13:39:11;99871.97;;;23.83;24.65
44103;BME280;29769;42.178;24.742;2023-02-18T13:42:19;99842.97;;;24.53;23.94
44103;BME280;29769;42.178;24.742;2023-02-18T13:45:28;99871.50;;;24.56;23.60
44103;BME280;29769;42.178;24.742;2023-02-18T13:48:21;99861.78;;;23.88;24.01
44103;BME280;29769;42.178;24.742;2023-02-18T13:51:25;99858.38;;;23.72;24.21
44103;BME280;29769;42.178;24.742;2023-02-18T13:57:01;99863.53;;;22.93;24.97
44103;BME280;29769;42.178;24.742;2023-02-18T13:59:51;99855.25;;;22.54;25.67
44103;BME280;29769;42.178;24.742;2023-02-18T14:02:55;99849.19;;;22.80;25.46
44103;BME280;29769;42.178;24.742;2023-02-18T14:05:40;99854.59;;;22.50;25.67
44103;BME280;29769;42.178;24.742;2023-02-18T14:08:32;99856.78;;;22.30;25.98
44103;BME280;29769;42.178;24.742;2023-02-18T14:22:49;99867.97;;;21.14;27.35
44103;BME280;29769;42.178;24.742;2023-02-18T14:25:38;99867.31;;;21.42;26.97
44103;BME280;29769;42.178;24.742;2023-02-18T14:31:28;99858.00;;;21.33;27.60
44103;BME280;29769;42.178;24.742;2023-02-18T14:34:39;99872.06;;;21.37;27.77
44103;BME280;29769;42.178;24.742;2023-02-18T14:40:53;99875.66;;;20.71;28.38
44103;BME280;29769;42.178;24.742;2023-02-18T14:46:58;99877.00;;;20.30;28.65
44103;BME280;29769;42.178;24.742;2023-02-18T14:49:52;99859.91;;;19.98;29.25
44103;BME280;29769;42.178;24.742;2023-02-18T14:52:44;99867.44;;;19.90;29.71
44103;BME280;29769;42.178;24.742;2023-02-18T14:55:34;99869.09;;;20.10;29.38
44103;BME280;29769;42.178;24.742;2023-02-18T15:01:23;99865.38;;;19.61;30.00
44103;BME280;29769;42.178;24.742;2023-02-18T15:04:15;99864.31;;;19.46;30.13
44103;BME280;29769;42.178;24.742;2023-02-18T15:07:04;99866.84;;;19.30;30.37
44103;BME280;29769;42.178;24.742;2023-02-18T15:09:53;99857.13;;;19.10;30.43
44103;BME280;29769;42.178;24.742;2023-02-18T15:12:39;99863.59;;;19.24;30.54
44103;BME280;29769;42.178;24.742;2023-02-18T15:15:24;99861.63;;;19.08;30.90
44103;BME280;29769;42.178;24.742;2023-02-18T15:18:21;99864.88;;;18.78;31.59
44103;BME280;29769;42.178;24.742;2023-02-18T15:21:08;99868.38;;;18.59;31.78
44103;BME280;29769;42.178;24.742;2023-02-18T15:27:13;99869.81;;;18.26;32.42
44103;BME280;29769;42.178;24.742;2023-02-18T15:32:58;99880.09;;;18.15;32.51
44103;BME280;29769;42.178;24.742;2023-02-18T15:35:44;99872.84;;;18.18;32.33
44103;BME280;29769;42.178;24.742;2023-02-18T15:38:28;99872.16;;;17.93;32.60
44103;BME280;29769;42.178;24.742;2023-02-18T15:41:15;99879.00;;;17.78;32.84
44103;BME280;29769;42.178;24.742;2023-02-18T15:44:04;99878.84;;;17.61;32.71
44103;BME280;29769;42.178;24.742;2023-02-18T15:46:50;99879.28;;;17.49;33.09
44103;BME280;29769;42.178;24.742;2023-02-18T15:49:37;99881.84;;;17.30;33.28
44103;BME280;29769;42.178;24.742;2023-02-18T15:52:32;99873.53;;;17.16;33.52
44103;BME280;29769;42.178;24.742;2023-02-18T15:55:29;99870.03;;;16.93;33.88
44103;BME280;29769;42.178;24.742;2023-02-18T15:58:18;99878.81;;;16.71;34.18
44103;BME280;29769;42.178;24.742;2023-02-18T16:01:06;99884.28;;;16.67;34.20
44103;BME280;29769;42.178;24.742;2023-02-18T16:03:53;99884.50;;;16.61;34.27
44103;BME280;29769;42.178;24.742;2023-02-18T16:06:44;99870.88;;;16.45;34.40
44103;BME280;29769;42.178;24.742;2023-02-18T16:09:32;99873.47;;;16.22;35.16
44103;BME280;29769;42.178;24.742;2023-02-18T16:12:26;99868.97;;;15.99;35.58
44103;BME280;29769;42.178;24.742;2023-02-18T16:15:21;99863.75;;;15.97;35.73
44103;BME280;29769;42.178;24.742;2023-02-18T16:18:36;99868.97;;;15.99;35.59
44103;BME280;29769;42.178;24.742;2023-02-18T16:21:31;99871.94;;;15.90;35.91
44103;BME280;29769;42.178;24.742;2023-02-18T16:24:29;99876.66;;;15.82;35.97
44103;BME280;29769;42.178;24.742;2023-02-18T16:27:15;99877.81;;;15.73;36.32
44103;BME280;29769;42.178;24.742;2023-02-18T16:30:22;99876.81;;;15.49;36.52
44103;BME280;29769;42.178;24.742;2023-02-18T16:33:07;99890.94;;;15.50;36.83
44103;BME280;29769;42.178;24.742;2023-02-18T16:35:52;99895.63;;;15.42;36.90
44103;BME280;29769;42.178;24.742;2023-02-18T16:38:39;99877.53;;;15.27;37.10
44103;BME280;29769;42.178;24.742;2023-02-18T16:41:24;99898.66;;;15.30;37.20
44103;BME280;29769;42.178;24.742;2023-02-18T16:44:12;99901.59;;;15.21;37.04
44103;BME280;29769;42.178;24.742;2023-02-18T16:46:58;99899.97;;;15.17;37.26
44103;BME280;29769;42.178;24.742;2023-02-18T16:49:44;99904.38;;;15.16;37.46
44103;BME280;29769;42.178;24.742;2023-02-18T16:52:30;99891.34;;;15.08;37.51
44103;BME280;29769;42.178;24.742;2023-02-18T16:55:17;99879.19;;;15.03;37.41
44103;BME280;29769;42.178;24.742;2023-02-18T16:58:03;99899.38;;;15.07;37.51
44103;BME280;29769;42.178;24.742;2023-02-18T17:00:50;99895.91;;;14.76;38.33
44103;BME280;29769;42.178;24.742;2023-02-18T17:03:36;99919.78;;;14.42;39.05